createdAt,value
2018-12-19T00:00:13.774Z,4.63
2018-12-19T00:02:42.010Z,5.50
2018-12-19T00:05:10.238Z,4.40
2018-12-19T00:07:38.435Z,4.57
2018-12-19T00:10:06.843Z,5.03
2018-12-19T00:12:35.135Z,4.63
2018-12-19T00:15:03.428Z,4.20
2018-12-19T00:17:31.721Z,4.80
2018-12-19T00:20:01.033Z,5.00
2018-12-19T00:22:29.624Z,4.70
2018-12-19T00:24:57.775Z,4.87
2018-12-19T00:27:26.011Z,4.70
2018-12-19T00:29:54.169Z,4.30
2018-12-19T00:32:22.304Z,4.63
2018-12-19T00:34:51.382Z,4.80
2018-12-19T00:37:19.677Z,4.57
2018-12-19T00:39:48.043Z,3.70
2018-12-19T00:42:16.203Z,4.43
2018-12-19T00:44:44.520Z,5.10
2018-12-19T00:47:12.681Z,4.57
2018-12-19T00:49:41.083Z,5.90
2018-12-19T00:52:09.283Z,4.77
2018-12-19T00:54:37.482Z,4.77
2018-12-19T00:57:05.759Z,5.13
2018-12-19T00:59:33.910Z,4.70
2018-12-19T01:02:02.196Z,5.70
2018-12-19T01:04:30.414Z,6.33
2018-12-19T01:06:58.589Z,5.67
2018-12-19T01:09:26.825Z,4.77
2018-12-19T01:11:55.186Z,4.20
2018-12-19T01:14:23.440Z,8.70
2018-12-19T01:16:51.598Z,5.50
2018-12-19T01:19:19.757Z,4.50
2018-12-19T01:21:47.996Z,4.20
2018-12-19T01:24:16.184Z,5.57
2018-12-19T01:26:44.459Z,4.13
2018-12-19T01:29:12.669Z,6.33
2018-12-19T01:31:40.854Z,4.83
2018-12-19T01:34:09.064Z,5.23
2018-12-19T01:36:37.281Z,5.13
2018-12-19T01:39:07.511Z,4.40
2018-12-19T01:41:35.798Z,4.80
2018-12-19T01:44:04.131Z,5.00
2018-12-19T01:46:32.369Z,4.93
2018-12-19T01:49:00.570Z,3.83
2018-12-19T01:51:28.807Z,5.13
2018-12-19T01:53:56.976Z,3.93
2018-12-19T01:56:25.174Z,4.10
2018-12-19T01:58:53.343Z,4.90
2018-12-19T02:01:21.561Z,5.00
2018-12-19T02:03:49.734Z,4.23
2018-12-19T02:06:17.945Z,5.33
2018-12-19T02:08:46.169Z,4.80
2018-12-19T02:11:14.330Z,4.90
2018-12-19T02:13:42.482Z,3.97
2018-12-19T02:16:10.706Z,5.07
2018-12-19T02:18:39.092Z,4.30
2018-12-19T02:21:07.481Z,3.93
2018-12-19T02:23:35.674Z,3.93
2018-12-19T02:26:03.927Z,4.20
2018-12-19T02:28:32.078Z,4.30
2018-12-19T02:31:00.286Z,4.47
2018-12-19T02:33:28.495Z,3.70
2018-12-19T02:35:56.682Z,4.70
2018-12-19T02:38:24.843Z,4.10
2018-12-19T02:40:53.166Z,4.90
2018-12-19T02:43:21.352Z,3.50
2018-12-19T02:45:49.514Z,4.73
2018-12-19T02:48:17.711Z,4.33
2018-12-19T02:50:45.895Z,5.00
2018-12-19T02:53:14.067Z,4.50
2018-12-19T02:55:42.274Z,4.20
2018-12-19T02:58:10.443Z,5.00
2018-12-19T03:00:38.613Z,4.53
2018-12-19T03:03:06.882Z,4.90
2018-12-19T03:05:35.124Z,4.47
2018-12-19T03:08:03.509Z,4.20
2018-12-19T03:10:31.764Z,4.27
2018-12-19T03:12:59.999Z,4.57
2018-12-19T03:15:28.211Z,4.37
2018-12-19T03:17:56.491Z,4.90
2018-12-19T03:20:24.644Z,4.13
2018-12-19T03:22:52.831Z,3.17
2018-12-19T03:25:21.019Z,3.53
2018-12-19T03:27:49.185Z,3.90
2018-12-19T03:30:17.470Z,4.07
2018-12-19T03:32:45.759Z,3.47
2018-12-19T03:35:14.078Z,3.60
2018-12-19T03:37:42.248Z,4.07
2018-12-19T03:40:10.466Z,4.30
2018-12-19T03:42:38.710Z,3.73
2018-12-19T03:45:07.312Z,3.47
2018-12-19T03:47:35.495Z,3.60
2018-12-19T03:50:04.130Z,4.30
2018-12-19T03:52:32.368Z,3.53
2018-12-19T03:55:00.797Z,4.20
2018-12-19T03:57:29.411Z,3.30
2018-12-19T03:59:57.634Z,3.67
2018-12-19T04:02:25.838Z,3.90
2018-12-19T04:04:53.984Z,3.73
2018-12-19T04:07:22.252Z,3.80
2018-12-19T04:09:57.464Z,3.77
2018-12-19T04:12:20.635Z,3.40
2018-12-19T04:14:48.771Z,3.50
2018-12-19T04:17:17.041Z,4.17
2018-12-19T04:19:45.266Z,4.10
2018-12-19T04:22:13.459Z,2.70
2018-12-19T04:24:41.776Z,4.70
2018-12-19T04:27:09.986Z,3.30
2018-12-19T04:29:38.556Z,4.07
2018-12-19T04:32:06.873Z,3.50
2018-12-19T04:34:35.035Z,5.70
2018-12-19T04:37:03.234Z,3.77
2018-12-19T04:39:31.862Z,3.67
2018-12-19T04:42:00.026Z,3.50
2018-12-19T04:44:28.201Z,3.30
2018-12-19T04:46:56.566Z,3.53
2018-12-19T04:49:24.821Z,3.30
2018-12-19T04:51:53.198Z,3.23
2018-12-19T04:54:21.373Z,3.80
2018-12-19T04:56:49.648Z,3.60
2018-12-19T04:59:18.053Z,3.93
2018-12-19T05:01:46.222Z,3.80
2018-12-19T05:04:14.382Z,3.73
2018-12-19T05:06:42.608Z,4.63
2018-12-19T05:09:11.153Z,4.07
2018-12-19T05:11:39.513Z,3.43
2018-12-19T05:14:07.770Z,3.70
2018-12-19T05:16:35.935Z,3.23
2018-12-19T05:19:04.646Z,3.45
2018-12-19T05:21:32.812Z,3.40
2018-12-19T05:24:00.977Z,4.27
2018-12-19T05:26:29.403Z,4.70
2018-12-19T05:28:57.562Z,4.10
2018-12-19T05:31:25.907Z,4.00
2018-12-19T05:33:54.080Z,5.07
2018-12-19T05:36:22.277Z,3.60
2018-12-19T05:38:51.054Z,4.07
2018-12-19T05:41:19.255Z,3.97
2018-12-19T05:43:47.528Z,3.70
2018-12-19T05:46:15.772Z,4.03
2018-12-19T05:48:43.973Z,4.53
2018-12-19T05:51:12.149Z,7.17
2018-12-19T05:53:42.586Z,5.17
2018-12-19T05:56:10.804Z,4.00
2018-12-19T05:58:39.028Z,3.80
2018-12-19T06:01:07.320Z,7.70
2018-12-19T06:03:35.695Z,4.50
2018-12-19T06:06:04.147Z,3.50
2018-12-19T06:08:32.322Z,4.90
2018-12-19T06:11:00.601Z,4.60
2018-12-19T06:13:28.857Z,4.53
2018-12-19T06:15:57.178Z,4.47
2018-12-19T06:18:25.424Z,3.67
2018-12-19T06:20:53.937Z,4.50
2018-12-19T06:23:22.211Z,3.77
2018-12-19T06:25:50.688Z,4.13
2018-12-19T06:28:19.765Z,5.00
2018-12-19T06:30:48.174Z,5.13
2018-12-19T06:33:16.432Z,3.40
2018-12-19T06:35:44.616Z,5.13
2018-12-19T06:38:12.907Z,5.63
2018-12-19T06:40:41.160Z,5.00
2018-12-19T06:43:09.350Z,4.50
2018-12-19T06:45:37.650Z,4.90
2018-12-19T06:48:05.965Z,4.70
2018-12-19T06:50:34.191Z,4.10
2018-12-19T06:53:02.542Z,4.43
2018-12-19T06:55:31.299Z,3.53
2018-12-19T06:57:59.582Z,4.37
2018-12-19T07:00:28.084Z,4.00
2018-12-19T07:02:57.359Z,4.53
2018-12-19T07:05:25.511Z,4.10
2018-12-19T07:07:53.689Z,4.00
2018-12-19T07:10:21.984Z,4.00
2018-12-19T07:12:50.372Z,4.87
2018-12-19T07:15:18.672Z,4.80
2018-12-19T07:17:47.139Z,4.13
2018-12-19T07:20:15.390Z,4.40
2018-12-19T07:22:43.683Z,5.73
2018-12-19T07:25:11.875Z,5.83
2018-12-19T07:27:40.133Z,6.60
2018-12-19T07:30:09.668Z,5.77
2018-12-19T07:32:37.899Z,5.13
2018-12-19T07:35:06.163Z,4.27
2018-12-19T07:37:36.236Z,5.77
2018-12-19T07:40:04.944Z,4.40
2018-12-19T07:42:33.139Z,5.27
2018-12-19T07:45:01.409Z,4.47
2018-12-19T07:47:29.819Z,4.57
2018-12-19T07:49:58.095Z,4.77
2018-12-19T07:52:27.322Z,5.13
2018-12-19T07:54:55.784Z,4.43
2018-12-19T07:57:25.007Z,4.43
2018-12-19T07:59:53.287Z,4.23
2018-12-19T08:02:23.010Z,4.37
2018-12-19T08:04:52.440Z,4.00
2018-12-19T08:07:23.663Z,3.90
2018-12-19T08:09:51.894Z,4.17
2018-12-19T08:12:20.811Z,4.73
2018-12-19T08:14:52.027Z,4.07
2018-12-19T08:17:20.224Z,5.40
2018-12-19T08:19:48.457Z,5.73
2018-12-19T08:22:16.913Z,4.33
2018-12-19T08:24:45.133Z,3.73
2018-12-19T08:27:13.504Z,4.10
2018-12-19T08:29:43.480Z,4.50
2018-12-19T08:32:11.650Z,5.00
2018-12-19T08:34:39.919Z,3.70
2018-12-19T08:37:08.329Z,4.70
2018-12-19T08:39:36.690Z,4.30
2018-12-19T08:42:05.011Z,4.10
2018-12-19T08:44:33.260Z,4.70
2018-12-19T08:47:01.562Z,4.33
2018-12-19T08:49:29.826Z,4.47
2018-12-19T08:51:58.757Z,5.50
2018-12-19T08:54:27.019Z,4.43
2018-12-19T08:56:55.566Z,4.20
2018-12-19T08:59:24.223Z,4.90
2018-12-19T09:01:52.383Z,4.97
2018-12-19T09:04:25.801Z,4.30
2018-12-19T09:06:51.493Z,4.97
2018-12-19T09:09:19.715Z,4.97
2018-12-19T09:11:47.968Z,4.77
2018-12-19T09:14:17.106Z,4.80
2018-12-19T09:16:45.322Z,4.90
2018-12-19T09:19:14.280Z,5.27
2018-12-19T09:21:42.462Z,3.40
2018-12-19T09:24:10.712Z,3.93
2018-12-19T09:26:39.974Z,4.00
2018-12-19T09:29:08.277Z,4.77
2018-12-19T09:31:36.681Z,3.63
2018-12-19T09:34:05.382Z,3.53
2018-12-19T09:36:33.574Z,3.17
2018-12-19T09:39:01.731Z,3.40
2018-12-19T09:41:31.879Z,3.60
2018-12-19T09:44:00.171Z,2.90
2018-12-19T09:46:28.348Z,3.60
2018-12-19T09:48:56.586Z,2.70
2018-12-19T09:51:24.842Z,3.73
2018-12-19T09:53:53.074Z,2.70
2018-12-19T09:56:21.460Z,2.53
2018-12-19T09:58:49.720Z,3.37
2018-12-19T10:01:20.207Z,2.90
2018-12-19T10:03:48.806Z,3.17
2018-12-19T10:06:17.287Z,2.83
2018-12-19T10:08:45.487Z,3.77
2018-12-19T10:11:18.715Z,3.50
2018-12-19T10:13:45.094Z,3.40
2018-12-19T10:16:14.723Z,5.80
2018-12-19T10:18:42.886Z,3.43
2018-12-19T10:21:11.373Z,4.37
2018-12-19T10:23:40.328Z,3.10
2018-12-19T10:26:12.674Z,4.27
2018-12-19T10:28:41.292Z,3.00
2018-12-19T10:31:09.677Z,3.57
2018-12-19T10:33:37.978Z,2.87
2018-12-19T10:36:07.439Z,2.47
2018-12-19T10:38:35.728Z,2.30
2018-12-19T10:41:03.960Z,2.60
2018-12-19T10:43:32.165Z,2.50
2018-12-19T10:46:00.424Z,2.70
2018-12-19T10:48:28.588Z,2.40
2018-12-19T10:50:56.950Z,2.00
2018-12-19T10:53:25.197Z,2.77
2018-12-19T10:55:54.705Z,1.83
2018-12-19T10:58:22.868Z,5.00
2018-12-19T11:00:56.660Z,3.97
2018-12-19T11:03:26.057Z,13.17
2018-12-19T11:05:54.575Z,4.33
2018-12-19T11:08:24.008Z,2.87
2018-12-19T11:10:52.286Z,4.00
2018-12-19T11:13:20.721Z,1.93
2018-12-19T11:15:49.051Z,1.37
2018-12-19T11:18:17.226Z,1.10
2018-12-19T11:20:45.554Z,1.70
2018-12-19T11:23:13.779Z,2.83
2018-12-19T11:25:41.976Z,1.50
2018-12-19T11:28:10.243Z,1.30
2018-12-19T11:30:38.504Z,1.30
2018-12-19T11:33:06.644Z,1.23
2018-12-19T11:35:36.344Z,0.73
2018-12-19T11:38:04.519Z,2.17
2018-12-19T11:40:32.704Z,2.87
2018-12-19T11:43:02.622Z,2.47
2018-12-19T11:45:30.925Z,1.50
2018-12-19T11:47:59.216Z,1.20
2018-12-19T11:50:27.481Z,1.03
2018-12-19T11:52:55.721Z,1.30
2018-12-19T11:55:23.958Z,1.20
2018-12-19T11:57:52.312Z,1.20
2018-12-19T12:00:20.469Z,4.30
2018-12-19T12:02:48.765Z,1.10
2018-12-19T12:05:19.053Z,1.30
2018-12-19T12:07:47.317Z,1.30
2018-12-19T12:10:15.548Z,1.63
2018-12-19T12:12:45.091Z,1.20
2018-12-19T12:15:13.403Z,1.70
2018-12-19T12:17:41.651Z,1.80
2018-12-19T12:20:12.365Z,1.27
2018-12-19T12:22:41.865Z,1.90
2018-12-19T12:25:10.140Z,1.60
2018-12-19T12:27:38.438Z,1.37
2018-12-19T12:30:06.960Z,1.73
2018-12-19T12:32:35.451Z,2.40
2018-12-19T12:35:04.057Z,1.80
2018-12-19T12:37:32.312Z,3.37
2018-12-19T12:40:00.563Z,2.40
2018-12-19T12:42:28.779Z,2.00
2018-12-19T12:44:57.662Z,0.93
2018-12-19T12:47:26.029Z,2.60
2018-12-19T12:49:54.288Z,1.63
2018-12-19T12:52:23.040Z,1.30
2018-12-19T12:54:51.337Z,1.07
2018-12-19T12:57:21.075Z,1.10
2018-12-19T12:59:52.217Z,1.83
2018-12-19T13:02:20.418Z,2.53
2018-12-19T13:04:48.650Z,1.23
2018-12-19T13:07:16.887Z,1.73
2018-12-19T13:09:45.085Z,1.67
2018-12-19T13:12:13.438Z,1.43
2018-12-19T13:14:41.764Z,1.00
2018-12-19T13:17:10.118Z,1.60
2018-12-19T13:19:39.066Z,1.43
2018-12-19T13:22:07.357Z,2.13
2018-12-19T13:24:43.226Z,1.93
2018-12-19T13:27:11.460Z,1.70
2018-12-19T13:29:39.643Z,1.40
2018-12-19T13:32:08.723Z,1.43
2018-12-19T13:34:36.964Z,3.23
2018-12-19T13:37:05.278Z,2.17
2018-12-19T13:39:34.394Z,1.17
2018-12-19T13:42:05.788Z,1.63
2018-12-19T13:44:33.118Z,1.63
2018-12-19T13:47:01.425Z,1.90
2018-12-19T13:49:29.626Z,2.07
2018-12-19T13:51:57.813Z,1.37
2018-12-19T13:54:26.391Z,2.07
2018-12-19T13:56:54.666Z,4.37
2018-12-19T13:59:22.846Z,2.50
2018-12-19T14:01:51.144Z,1.60
2018-12-19T14:04:19.482Z,3.40
2018-12-19T14:06:47.791Z,2.20
2018-12-19T14:09:16.025Z,1.97
2018-12-19T14:11:50.931Z,5.20
2018-12-19T14:14:19.144Z,2.60
2018-12-19T14:16:47.448Z,1.43
2018-12-19T14:19:15.822Z,2.70
2018-12-19T14:21:44.102Z,1.97
2018-12-19T14:24:12.300Z,2.23
2018-12-19T14:26:40.516Z,1.80
2018-12-19T14:29:09.246Z,2.17
2018-12-19T14:31:37.474Z,2.17
2018-12-19T14:34:05.675Z,1.93
2018-12-19T14:36:34.287Z,2.53
2018-12-19T14:39:03.674Z,2.10
2018-12-19T14:41:31.855Z,2.07
2018-12-19T14:44:00.189Z,3.27
2018-12-19T14:46:28.463Z,2.50
2018-12-19T14:48:56.866Z,2.57
2018-12-19T14:51:25.255Z,5.93
2018-12-19T14:53:53.488Z,2.20
2018-12-19T14:56:21.681Z,2.70
2018-12-19T14:58:50.102Z,2.50
2018-12-19T15:01:18.430Z,1.70
2018-12-19T15:03:46.724Z,3.00
2018-12-19T15:06:15.036Z,1.87
2018-12-19T15:08:43.606Z,2.50
2018-12-19T15:11:11.907Z,2.90
2018-12-19T15:13:40.227Z,2.73
2018-12-19T15:16:08.638Z,2.53
2018-12-19T15:18:37.385Z,2.23
2018-12-19T15:21:06.726Z,2.07
2018-12-19T15:23:34.946Z,1.80
2018-12-19T15:26:03.246Z,2.30
2018-12-19T15:28:31.677Z,1.73
2018-12-19T15:31:00.239Z,1.80
2018-12-19T15:33:28.504Z,1.80
2018-12-19T15:35:56.968Z,2.40
2018-12-19T15:38:25.702Z,2.20
2018-12-19T15:40:55.295Z,2.80
2018-12-19T15:43:23.694Z,2.33
2018-12-19T15:45:52.006Z,3.03
2018-12-19T15:48:20.556Z,1.43
2018-12-19T15:50:48.909Z,1.40
2018-12-19T15:53:17.191Z,1.27
2018-12-19T15:55:47.000Z,1.63
2018-12-19T15:58:15.576Z,2.53
2018-12-19T16:00:44.071Z,2.20
2018-12-19T16:03:12.851Z,1.55
2018-12-19T16:05:41.314Z,1.50
2018-12-19T16:08:09.784Z,1.53
2018-12-19T16:10:38.030Z,2.43
2018-12-19T16:13:06.658Z,2.23
2018-12-19T16:15:34.834Z,1.50
2018-12-19T16:18:03.110Z,4.63
2018-12-19T16:20:31.575Z,2.37
2018-12-19T16:22:59.774Z,1.77
2018-12-19T16:25:28.217Z,2.17
2018-12-19T16:27:56.712Z,3.33
2018-12-19T16:30:25.026Z,2.90
2018-12-19T16:32:53.445Z,1.97
2018-12-19T16:35:21.813Z,2.93
2018-12-19T16:37:50.288Z,2.30
2018-12-19T16:40:18.695Z,2.77
2018-12-19T16:42:46.976Z,3.90
2018-12-19T16:45:15.764Z,3.50
2018-12-19T16:47:44.693Z,2.73
2018-12-19T16:50:12.962Z,2.10
2018-12-19T16:52:41.190Z,2.53
2018-12-19T16:55:10.007Z,2.90
2018-12-19T16:57:38.188Z,2.03
2018-12-19T17:00:07.932Z,2.13
2018-12-19T17:02:36.138Z,1.50
2018-12-19T17:05:05.049Z,3.57
2018-12-19T17:07:33.556Z,2.93
2018-12-19T17:10:02.372Z,2.63
2018-12-19T17:12:30.700Z,3.03
2018-12-19T17:14:58.915Z,2.60
2018-12-19T17:17:27.170Z,5.70
2018-12-19T17:19:55.516Z,3.97
2018-12-19T17:22:23.849Z,5.50
2018-12-19T17:24:52.057Z,2.43
2018-12-19T17:27:20.255Z,4.10
2018-12-19T17:29:49.975Z,3.53
2018-12-19T17:32:19.619Z,3.13
2018-12-19T17:34:47.863Z,3.53
2018-12-19T17:37:16.101Z,2.70
2018-12-19T17:39:44.298Z,5.30
2018-12-19T17:42:12.551Z,2.97
2018-12-19T17:44:41.230Z,2.87
2018-12-19T17:47:09.658Z,3.50
2018-12-19T17:49:38.048Z,3.73
2018-12-19T17:52:06.284Z,2.80
2018-12-19T17:54:34.638Z,2.93
2018-12-19T17:57:03.168Z,4.30
2018-12-19T17:59:31.657Z,2.97
2018-12-19T18:02:00.086Z,3.47
2018-12-19T18:04:28.317Z,3.67
2018-12-19T18:06:56.741Z,3.27
2018-12-19T18:09:25.384Z,3.70
2018-12-19T18:11:53.672Z,3.70
2018-12-19T18:14:22.148Z,5.70
2018-12-19T18:16:50.413Z,5.53
2018-12-19T18:19:23.314Z,8.20
2018-12-19T18:21:48.856Z,3.27
2018-12-19T18:24:17.199Z,4.07
2018-12-19T18:26:45.431Z,4.33
2018-12-19T18:29:13.701Z,3.93
2018-12-19T18:31:42.003Z,3.80
2018-12-19T18:34:10.209Z,5.50
2018-12-19T18:36:38.611Z,3.97
2018-12-19T18:39:09.011Z,4.77
2018-12-19T18:41:37.388Z,4.37
2018-12-19T18:44:05.619Z,3.70
2018-12-19T18:46:33.816Z,4.50
2018-12-19T18:49:02.208Z,4.13
2018-12-19T18:51:30.382Z,4.03
2018-12-19T18:53:58.558Z,5.10
2018-12-19T18:56:26.959Z,5.10
2018-12-19T18:58:55.149Z,4.80
2018-12-19T19:01:23.389Z,5.07
2018-12-19T19:03:52.019Z,3.97
2018-12-19T19:06:20.276Z,5.20
2018-12-19T19:08:48.539Z,4.67
2018-12-19T19:11:16.865Z,4.80
2018-12-19T19:13:45.079Z,5.30
2018-12-19T19:16:13.945Z,5.20
2018-12-19T19:18:47.194Z,5.37
2018-12-19T19:21:15.538Z,5.53
2018-12-19T19:23:43.743Z,4.93
2018-12-19T19:26:12.056Z,5.43
2018-12-19T19:28:40.329Z,5.60
2018-12-19T19:31:08.770Z,4.07
2018-12-19T19:33:37.026Z,4.77
2018-12-19T19:36:05.197Z,6.00
2018-12-19T19:38:33.468Z,4.80
2018-12-19T19:41:02.266Z,5.67
2018-12-19T19:43:30.533Z,4.50
2018-12-19T19:45:58.755Z,5.50
2018-12-19T19:48:27.051Z,5.40
2018-12-19T19:50:55.275Z,6.67
2018-12-19T19:53:23.610Z,5.50
2018-12-19T19:55:52.010Z,5.40
2018-12-19T19:58:20.204Z,5.47
2018-12-19T20:00:48.568Z,5.87
2018-12-19T20:03:17.456Z,6.50
2018-12-19T20:05:46.034Z,6.10
2018-12-19T20:08:14.219Z,5.27
2018-12-19T20:10:42.498Z,6.10
2018-12-19T20:13:10.674Z,5.43
2018-12-19T20:15:39.056Z,6.60
2018-12-19T20:18:09.279Z,6.37
2018-12-19T20:20:38.201Z,7.47
2018-12-19T20:23:07.078Z,6.50
2018-12-19T20:25:35.286Z,5.17
2018-12-19T20:28:03.790Z,7.23
2018-12-19T20:30:32.074Z,5.90
2018-12-19T20:33:00.331Z,8.83
2018-12-19T20:35:28.701Z,7.60
2018-12-19T20:37:56.876Z,6.87
2018-12-19T20:40:25.078Z,6.67
2018-12-19T20:42:53.300Z,7.10
2018-12-19T20:45:21.477Z,7.00
2018-12-19T20:47:49.737Z,6.77
2018-12-19T20:50:18.071Z,7.17
2018-12-19T20:52:46.343Z,6.90
2018-12-19T20:55:14.547Z,5.90
2018-12-19T20:57:42.920Z,6.90
2018-12-19T21:00:11.516Z,7.60
2018-12-19T21:02:43.093Z,7.20
2018-12-19T21:05:11.461Z,7.30
2018-12-19T21:07:39.787Z,6.20
2018-12-19T21:10:08.691Z,6.90
2018-12-19T21:12:36.992Z,6.47
2018-12-19T21:15:06.392Z,6.30
2018-12-19T21:17:40.135Z,6.03
2018-12-19T21:20:08.646Z,5.73
2018-12-19T21:22:36.949Z,7.80
2018-12-19T21:25:05.499Z,7.20
2018-12-19T21:27:33.855Z,6.73
2018-12-19T21:30:02.155Z,7.80
2018-12-19T21:32:30.522Z,5.97
2018-12-19T21:34:58.675Z,7.93
2018-12-19T21:37:26.971Z,7.13
2018-12-19T21:39:55.363Z,7.10
2018-12-19T21:42:23.693Z,6.80
2018-12-19T21:44:52.250Z,8.67
2018-12-19T21:47:20.477Z,6.80
2018-12-19T21:49:48.686Z,6.70
2018-12-19T21:52:16.870Z,7.30
2018-12-19T21:54:45.106Z,6.30
2018-12-19T21:57:13.474Z,6.57
2018-12-19T21:59:42.243Z,7.60
2018-12-19T22:02:10.501Z,6.20
2018-12-19T22:04:38.751Z,7.97
2018-12-19T22:07:08.494Z,8.53
2018-12-19T22:09:37.233Z,8.00
2018-12-19T22:12:05.517Z,7.30
2018-12-19T22:14:33.735Z,9.60
2018-12-19T22:17:07.350Z,7.90
2018-12-19T22:19:35.646Z,9.17
2018-12-19T22:22:04.032Z,8.93
2018-12-19T22:24:32.340Z,9.60
2018-12-19T22:27:00.508Z,7.97
2018-12-19T22:29:29.031Z,9.40
2018-12-19T22:31:57.424Z,9.10
2018-12-19T22:34:25.752Z,7.93
2018-12-19T22:36:54.019Z,7.80
2018-12-19T22:39:31.568Z,8.60
2018-12-19T22:42:00.010Z,8.50
2018-12-19T22:44:28.251Z,8.27
2018-12-19T22:46:56.772Z,8.03
2018-12-19T22:49:25.822Z,8.00
2018-12-19T22:52:05.371Z,7.50
2018-12-19T22:54:33.710Z,7.03
2018-12-19T22:57:27.040Z,8.23
2018-12-19T22:59:55.573Z,7.17
2018-12-19T23:03:28.205Z,7.80
2018-12-19T23:05:56.602Z,8.67
2018-12-19T23:08:24.807Z,7.87
2018-12-19T23:10:53.314Z,7.60
2018-12-19T23:13:21.749Z,5.90
2018-12-19T23:15:50.098Z,7.30
2018-12-19T23:18:23.813Z,6.90
2018-12-19T23:20:53.283Z,6.93
2018-12-19T23:23:21.622Z,7.70
2018-12-19T23:25:49.895Z,6.07
2018-12-19T23:28:18.378Z,5.07
2018-12-19T23:30:46.706Z,5.37
2018-12-19T23:33:15.017Z,5.67
2018-12-19T23:35:43.234Z,5.53
2018-12-19T23:38:11.685Z,5.20
2018-12-19T23:40:40.069Z,5.30
2018-12-19T23:43:08.530Z,4.73
2018-12-19T23:45:36.754Z,5.13
2018-12-19T23:48:05.161Z,4.97
2018-12-19T23:50:33.424Z,4.17
2018-12-19T23:53:01.713Z,5.47
2018-12-19T23:55:29.958Z,4.83
2018-12-19T23:57:58.255Z,3.93
